sensor_id;sensor_type;location;lat;lon;timestamp;P1;durP1;ratioP1;P2;durP2;ratioP2
36593;SDS011;22603;47.900;8.146;2024-03-22T00:01:56;6.70;;;2.50;;
36593;SDS011;22603;47.900;8.146;2024-03-22T00:04:42;7.60;;;3.00;;
36593;SDS011;22603;47.900;8.146;2024-03-22T00:07:26;7.90;;;2.80;;
36593;SDS011;22603;47.900;8.146;2024-03-22T00:10:12;6.17;;;2.70;;
36593;SDS011;22603;47.900;8.146;2024-03-22T00:12:57;6.10;;;2.50;;
36593;SDS011;22603;47.900;8.146;2024-03-22T00:15:45;8.27;;;3.40;;
36593;SDS011;22603;47.900;8.146;2024-03-22T00:18:30;7.47;;;2.67;;
36593;SDS011;22603;47.900;8.146;2024-03-22T00:21:15;17.83;;;2.87;;
36593;SDS011;22603;47.900;8.146;2024-03-22T00:24:00;6.00;;;3.00;;
36593;SDS011;22603;47.900;8.146;2024-03-22T00:26:46;5.63;;;2.77;;
36593;SDS011;22603;47.900;8.146;2024-03-22T00:29:30;6.77;;;2.80;;
36593;SDS011;22603;47.900;8.146;2024-03-22T00:32:17;6.47;;;2.90;;
36593;SDS011;22603;47.900;8.146;2024-03-22T00:35:03;7.73;;;2.70;;
36593;SDS011;22603;47.900;8.146;2024-03-22T00:37:48;7.23;;;2.47;;
36593;SDS011;22603;47.900;8.146;2024-03-22T00:40:34;6.70;;;2.70;;
36593;SDS011;22603;47.900;8.146;2024-03-22T00:43:19;7.63;;;2.70;;
36593;SDS011;22603;47.900;8.146;2024-03-22T00:46:04;8.20;;;2.70;;
36593;SDS011;22603;47.900;8.146;2024-03-22T00:48:51;6.10;;;2.47;;
36593;SDS011;22603;47.900;8.146;2024-03-22T00:51:37;9.73;;;2.77;;
36593;SDS011;22603;47.900;8.146;2024-03-22T00:54:21;6.30;;;2.90;;
36593;SDS011;22603;47.900;8.146;2024-03-22T00:57:07;6.87;;;2.87;;
36593;SDS011;22603;47.900;8.146;2024-03-22T00:59:52;8.40;;;3.00;;
36593;SDS011;22603;47.900;8.146;2024-03-22T01:02:37;5.80;;;2.73;;
36593;SDS011;22603;47.900;8.146;2024-03-22T01:05:23;8.30;;;2.80;;
36593;SDS011;22603;47.900;8.146;2024-03-22T01:08:10;6.83;;;2.70;;
36593;SDS011;22603;47.900;8.146;2024-03-22T01:10:54;5.53;;;2.47;;
36593;SDS011;22603;47.900;8.146;2024-03-22T01:13:40;7.83;;;2.80;;
36593;SDS011;22603;47.900;8.146;2024-03-22T01:16:25;7.77;;;2.87;;
36593;SDS011;22603;47.900;8.146;2024-03-22T01:19:11;5.10;;;2.27;;
36593;SDS011;22603;47.900;8.146;2024-03-22T01:21:57;5.90;;;2.50;;
36593;SDS011;22603;47.900;8.146;2024-03-22T01:24:43;5.27;;;2.50;;
36593;SDS011;22603;47.900;8.146;2024-03-22T01:27:28;7.83;;;2.63;;
36593;SDS011;22603;47.900;8.146;2024-03-22T01:30:13;8.57;;;2.67;;
36593;SDS011;22603;47.900;8.146;2024-03-22T01:32:58;7.80;;;3.07;;
36593;SDS011;22603;47.900;8.146;2024-03-22T01:35:44;6.50;;;2.63;;
36593;SDS011;22603;47.900;8.146;2024-03-22T01:38:30;7.90;;;3.07;;
36593;SDS011;22603;47.900;8.146;2024-03-22T01:41:16;7.67;;;2.93;;
36593;SDS011;22603;47.900;8.146;2024-03-22T01:44:01;7.47;;;2.97;;
36593;SDS011;22603;47.900;8.146;2024-03-22T01:46:47;7.47;;;2.80;;
36593;SDS011;22603;47.900;8.146;2024-03-22T01:49:32;8.50;;;2.83;;
36593;SDS011;22603;47.900;8.146;2024-03-22T01:52:19;7.40;;;2.70;;
36593;SDS011;22603;47.900;8.146;2024-03-22T01:55:05;5.77;;;2.43;;
36593;SDS011;22603;47.900;8.146;2024-03-22T01:57:53;7.47;;;2.93;;
36593;SDS011;22603;47.900;8.146;2024-03-22T02:00:37;7.57;;;2.87;;
36593;SDS011;22603;47.900;8.146;2024-03-22T02:03:24;7.33;;;2.87;;
36593;SDS011;22603;47.900;8.146;2024-03-22T02:06:09;10.10;;;2.67;;
36593;SDS011;22603;47.900;8.146;2024-03-22T02:08:55;8.50;;;2.87;;
36593;SDS011;22603;47.900;8.146;2024-03-22T02:11:42;6.70;;;2.83;;
36593;SDS011;22603;47.900;8.146;2024-03-22T02:14:28;5.40;;;2.30;;
36593;SDS011;22603;47.900;8.146;2024-03-22T02:17:13;8.80;;;2.80;;
36593;SDS011;22603;47.900;8.146;2024-03-22T02:19:59;9.20;;;2.70;;
36593;SDS011;22603;47.900;8.146;2024-03-22T02:22:44;5.20;;;2.57;;
36593;SDS011;22603;47.900;8.146;2024-03-22T02:25:31;8.17;;;2.97;;
36593;SDS011;22603;47.900;8.146;2024-03-22T02:28:16;10.73;;;3.33;;
36593;SDS011;22603;47.900;8.146;2024-03-22T02:31:03;9.50;;;2.40;;
36593;SDS011;22603;47.900;8.146;2024-03-22T02:33:48;5.13;;;2.40;;
36593;SDS011;22603;47.900;8.146;2024-03-22T02:36:34;5.57;;;2.50;;
36593;SDS011;22603;47.900;8.146;2024-03-22T02:39:20;6.53;;;2.50;;
36593;SDS011;22603;47.900;8.146;2024-03-22T02:42:07;5.27;;;2.30;;
36593;SDS011;22603;47.900;8.146;2024-03-22T02:44:52;6.37;;;2.80;;
36593;SDS011;22603;47.900;8.146;2024-03-22T02:47:38;10.50;;;3.13;;
36593;SDS011;22603;47.900;8.146;2024-03-22T02:50:23;8.97;;;3.10;;
36593;SDS011;22603;47.900;8.146;2024-03-22T02:53:09;4.67;;;2.23;;
36593;SDS011;22603;47.900;8.146;2024-03-22T02:55:54;6.57;;;2.50;;
36593;SDS011;22603;47.900;8.146;2024-03-22T02:58:41;7.43;;;3.00;;
36593;SDS011;22603;47.900;8.146;2024-03-22T03:01:26;7.93;;;3.10;;
36593;SDS011;22603;47.900;8.146;2024-03-22T03:04:12;5.57;;;2.47;;
36593;SDS011;22603;47.900;8.146;2024-03-22T03:06:57;9.20;;;3.23;;
36593;SDS011;22603;47.900;8.146;2024-03-22T03:09:43;7.53;;;2.90;;
36593;SDS011;22603;47.900;8.146;2024-03-22T03:12:28;6.30;;;2.63;;
36593;SDS011;22603;47.900;8.146;2024-03-22T03:15:15;7.37;;;2.87;;
36593;SDS011;22603;47.900;8.146;2024-03-22T03:18:00;8.97;;;3.17;;
36593;SDS011;22603;47.900;8.146;2024-03-22T03:20:46;7.70;;;3.20;;
36593;SDS011;22603;47.900;8.146;2024-03-22T03:23:31;6.73;;;2.97;;
36593;SDS011;22603;47.900;8.146;2024-03-22T03:26:16;7.47;;;3.07;;
36593;SDS011;22603;47.900;8.146;2024-03-22T03:29:02;7.63;;;3.03;;
36593;SDS011;22603;47.900;8.146;2024-03-22T03:31:49;7.93;;;2.97;;
36593;SDS011;22603;47.900;8.146;2024-03-22T03:34:34;8.27;;;3.27;;
36593;SDS011;22603;47.900;8.146;2024-03-22T03:37:19;8.63;;;3.53;;
36593;SDS011;22603;47.900;8.146;2024-03-22T03:40:06;9.87;;;2.90;;
36593;SDS011;22603;47.900;8.146;2024-03-22T03:42:52;8.83;;;3.23;;
36593;SDS011;22603;47.900;8.146;2024-03-22T03:45:37;9.43;;;3.60;;
36593;SDS011;22603;47.900;8.146;2024-03-22T03:48:23;10.03;;;3.43;;
36593;SDS011;22603;47.900;8.146;2024-03-22T03:51:09;13.03;;;4.03;;
36593;SDS011;22603;47.900;8.146;2024-03-22T03:53:54;9.77;;;3.20;;
36593;SDS011;22603;47.900;8.146;2024-03-22T03:56:40;10.43;;;3.50;;
36593;SDS011;22603;47.900;8.146;2024-03-22T03:59:24;9.07;;;3.27;;
36593;SDS011;22603;47.900;8.146;2024-03-22T04:02:10;6.77;;;3.43;;
36593;SDS011;22603;47.900;8.146;2024-03-22T04:04:56;9.47;;;3.33;;
36593;SDS011;22603;47.900;8.146;2024-03-22T04:07:42;15.73;;;3.10;;
36593;SDS011;22603;47.900;8.146;2024-03-22T04:10:31;8.03;;;3.00;;
36593;SDS011;22603;47.900;8.146;2024-03-22T04:13:16;7.57;;;3.20;;
36593;SDS011;22603;47.900;8.146;2024-03-22T04:16:01;7.20;;;2.80;;
36593;SDS011;22603;47.900;8.146;2024-03-22T04:18:47;7.30;;;3.20;;
36593;SDS011;22603;47.900;8.146;2024-03-22T04:21:33;9.40;;;3.30;;
36593;SDS011;22603;47.900;8.146;2024-03-22T04:24:19;8.53;;;3.50;;
36593;SDS011;22603;47.900;8.146;2024-03-22T04:27:04;8.30;;;3.53;;
36593;SDS011;22603;47.900;8.146;2024-03-22T04:29:51;6.80;;;3.17;;
36593;SDS011;22603;47.900;8.146;2024-03-22T04:32:36;10.53;;;4.20;;
36593;SDS011;22603;47.900;8.146;2024-03-22T04:35:22;7.80;;;3.33;;
36593;SDS011;22603;47.900;8.146;2024-03-22T04:38:08;10.30;;;3.53;;
36593;SDS011;22603;47.900;8.146;2024-03-22T04:40:54;7.20;;;3.43;;
36593;SDS011;22603;47.900;8.146;2024-03-22T04:43:41;8.67;;;3.03;;
36593;SDS011;22603;47.900;8.146;2024-03-22T04:46:28;10.43;;;3.57;;
36593;SDS011;22603;47.900;8.146;2024-03-22T04:49:13;9.07;;;3.50;;
36593;SDS011;22603;47.900;8.146;2024-03-22T04:51:58;9.77;;;3.57;;
36593;SDS011;22603;47.900;8.146;2024-03-22T04:54:46;8.27;;;3.70;;
36593;SDS011;22603;47.900;8.146;2024-03-22T04:57:31;7.30;;;3.03;;
36593;SDS011;22603;47.900;8.146;2024-03-22T05:00:17;9.77;;;3.57;;
36593;SDS011;22603;47.900;8.146;2024-03-22T05:03:02;9.53;;;3.20;;
36593;SDS011;22603;47.900;8.146;2024-03-22T05:05:49;8.40;;;3.60;;
36593;SDS011;22603;47.900;8.146;2024-03-22T05:08:34;14.60;;;3.40;;
36593;SDS011;22603;47.900;8.146;2024-03-22T05:11:21;8.37;;;3.37;;
36593;SDS011;22603;47.900;8.146;2024-03-22T05:14:06;9.10;;;3.73;;
36593;SDS011;22603;47.900;8.146;2024-03-22T05:16:52;7.43;;;3.13;;
36593;SDS011;22603;47.900;8.146;2024-03-22T05:19:38;7.20;;;3.13;;
36593;SDS011;22603;47.900;8.146;2024-03-22T05:22:24;10.37;;;3.53;;
36593;SDS011;22603;47.900;8.146;2024-03-22T05:25:09;8.53;;;3.13;;
36593;SDS011;22603;47.900;8.146;2024-03-22T05:27:57;9.23;;;3.70;;
36593;SDS011;22603;47.900;8.146;2024-03-22T05:30:43;11.10;;;3.80;;
36593;SDS011;22603;47.900;8.146;2024-03-22T05:33:28;9.57;;;3.23;;
36593;SDS011;22603;47.900;8.146;2024-03-22T05:36:13;9.90;;;3.73;;
36593;SDS011;22603;47.900;8.146;2024-03-22T05:38:59;9.27;;;3.80;;
36593;SDS011;22603;47.900;8.146;2024-03-22T05:41:45;7.67;;;3.40;;
36593;SDS011;22603;47.900;8.146;2024-03-22T05:44:31;10.93;;;3.80;;
36593;SDS011;22603;47.900;8.146;2024-03-22T05:47:17;11.87;;;3.57;;
36593;SDS011;22603;47.900;8.146;2024-03-22T05:50:03;10.63;;;3.87;;
36593;SDS011;22603;47.900;8.146;2024-03-22T05:52:50;10.67;;;4.43;;
36593;SDS011;22603;47.900;8.146;2024-03-22T05:55:35;13.13;;;3.83;;
36593;SDS011;22603;47.900;8.146;2024-03-22T05:58:21;11.47;;;4.10;;
36593;SDS011;22603;47.900;8.146;2024-03-22T06:01:07;7.80;;;3.50;;
36593;SDS011;22603;47.900;8.146;2024-03-22T06:03:53;9.20;;;3.87;;
36593;SDS011;22603;47.900;8.146;2024-03-22T06:06:38;9.50;;;3.23;;
36593;SDS011;22603;47.900;8.146;2024-03-22T06:09:24;7.17;;;2.93;;
36593;SDS011;22603;47.900;8.146;2024-03-22T06:12:18;9.70;;;3.70;;
36593;SDS011;22603;47.900;8.146;2024-03-22T06:15:06;9.63;;;3.63;;
36593;SDS011;22603;47.900;8.146;2024-03-22T06:17:53;8.67;;;3.17;;
36593;SDS011;22603;47.900;8.146;2024-03-22T06:20:39;9.00;;;3.77;;
36593;SDS011;22603;47.900;8.146;2024-03-22T06:23:23;8.70;;;3.50;;
36593;SDS011;22603;47.900;8.146;2024-03-22T06:26:09;7.07;;;3.07;;
36593;SDS011;22603;47.900;8.146;2024-03-22T06:28:54;10.20;;;3.80;;
36593;SDS011;22603;47.900;8.146;2024-03-22T06:31:40;8.23;;;3.40;;
36593;SDS011;22603;47.900;8.146;2024-03-22T06:34:26;7.57;;;3.27;;
36593;SDS011;22603;47.900;8.146;2024-03-22T06:37:12;10.13;;;3.60;;
36593;SDS011;22603;47.900;8.146;2024-03-22T06:39:56;8.37;;;3.27;;
36593;SDS011;22603;47.900;8.146;2024-03-22T06:42:43;8.70;;;3.07;;
36593;SDS011;22603;47.900;8.146;2024-03-22T06:45:28;12.17;;;3.50;;
36593;SDS011;22603;47.900;8.146;2024-03-22T06:48:14;8.37;;;3.00;;
36593;SDS011;22603;47.900;8.146;2024-03-22T06:51:00;6.50;;;2.97;;
36593;SDS011;22603;47.900;8.146;2024-03-22T06:53:46;9.27;;;3.60;;
36593;SDS011;22603;47.900;8.146;2024-03-22T06:56:31;7.43;;;2.80;;
36593;SDS011;22603;47.900;8.146;2024-03-22T06:59:17;5.50;;;2.40;;
36593;SDS011;22603;47.900;8.146;2024-03-22T07:02:03;6.47;;;2.37;;
36593;SDS011;22603;47.900;8.146;2024-03-22T07:04:49;7.87;;;2.50;;
36593;SDS011;22603;47.900;8.146;2024-03-22T07:07:35;5.90;;;2.67;;
36593;SDS011;22603;47.900;8.146;2024-03-22T07:10:21;9.30;;;2.70;;
36593;SDS011;22603;47.900;8.146;2024-03-22T07:13:06;8.50;;;2.70;;
36593;SDS011;22603;47.900;8.146;2024-03-22T07:15:52;7.53;;;2.73;;
36593;SDS011;22603;47.900;8.146;2024-03-22T07:18:36;6.50;;;2.73;;
36593;SDS011;22603;47.900;8.146;2024-03-22T07:21:22;6.27;;;2.27;;
36593;SDS011;22603;47.900;8.146;2024-03-22T07:24:08;7.17;;;2.70;;
36593;SDS011;22603;47.900;8.146;2024-03-22T07:26:54;5.90;;;2.70;;
36593;SDS011;22603;47.900;8.146;2024-03-22T07:29:39;9.10;;;2.90;;
36593;SDS011;22603;47.900;8.146;2024-03-22T07:32:25;6.90;;;2.50;;
36593;SDS011;22603;47.900;8.146;2024-03-22T07:35:10;6.18;;;2.78;;
36593;SDS011;22603;47.900;8.146;2024-03-22T07:37:56;8.57;;;2.42;;
36593;SDS011;22603;47.900;8.146;2024-03-22T07:40:42;9.57;;;2.97;;
36593;SDS011;22603;47.900;8.146;2024-03-22T07:43:28;8.75;;;3.05;;
36593;SDS011;22603;47.900;8.146;2024-03-22T07:46:13;6.25;;;2.67;;
36593;SDS011;22603;47.900;8.146;2024-03-22T07:48:58;8.00;;;3.00;;
36593;SDS011;22603;47.900;8.146;2024-03-22T07:51:44;7.50;;;2.67;;
36593;SDS011;22603;47.900;8.146;2024-03-22T07:54:30;8.60;;;2.90;;
36593;SDS011;22603;47.900;8.146;2024-03-22T07:57:17;8.43;;;2.97;;
36593;SDS011;22603;47.900;8.146;2024-03-22T08:00:05;8.38;;;2.83;;
36593;SDS011;22603;47.900;8.146;2024-03-22T08:02:50;8.75;;;2.83;;
36593;SDS011;22603;47.900;8.146;2024-03-22T08:05:37;7.28;;;2.97;;
36593;SDS011;22603;47.900;8.146;2024-03-22T08:08:21;7.25;;;2.92;;
36593;SDS011;22603;47.900;8.146;2024-03-22T08:11:07;7.43;;;2.60;;
36593;SDS011;22603;47.900;8.146;2024-03-22T08:13:54;11.75;;;3.22;;
36593;SDS011;22603;47.900;8.146;2024-03-22T08:16:46;7.72;;;2.58;;
36593;SDS011;22603;47.900;8.146;2024-03-22T08:19:30;6.38;;;2.60;;
36593;SDS011;22603;47.900;8.146;2024-03-22T08:22:16;7.30;;;2.90;;
36593;SDS011;22603;47.900;8.146;2024-03-22T08:25:01;10.50;;;2.75;;
36593;SDS011;22603;47.900;8.146;2024-03-22T08:27:48;6.70;;;2.60;;
36593;SDS011;22603;47.900;8.146;2024-03-22T08:30:36;7.88;;;2.67;;
36593;SDS011;22603;47.900;8.146;2024-03-22T08:33:23;7.57;;;2.50;;
36593;SDS011;22603;47.900;8.146;2024-03-22T08:36:07;8.68;;;2.80;;
36593;SDS011;22603;47.900;8.146;2024-03-22T08:38:53;5.68;;;2.30;;
36593;SDS011;22603;47.900;8.146;2024-03-22T08:41:38;5.63;;;2.20;;
36593;SDS011;22603;47.900;8.146;2024-03-22T08:44:24;6.88;;;2.25;;
36593;SDS011;22603;47.900;8.146;2024-03-22T08:47:10;6.88;;;2.40;;
36593;SDS011;22603;47.900;8.146;2024-03-22T08:49:56;5.50;;;2.38;;
36593;SDS011;22603;47.900;8.146;2024-03-22T08:52:41;6.50;;;2.22;;
36593;SDS011;22603;47.900;8.146;2024-03-22T08:55:27;5.47;;;1.90;;
36593;SDS011;22603;47.900;8.146;2024-03-22T08:58:12;6.07;;;2.20;;
36593;SDS011;22603;47.900;8.146;2024-03-22T09:00:58;7.22;;;1.70;;
36593;SDS011;22603;47.900;8.146;2024-03-22T09:03:45;3.45;;;1.73;;
36593;SDS011;22603;47.900;8.146;2024-03-22T09:06:30;6.22;;;1.77;;
36593;SDS011;22603;47.900;8.146;2024-03-22T09:09:15;4.70;;;1.85;;
36593;SDS011;22603;47.900;8.146;2024-03-22T09:12:01;3.85;;;1.70;;
36593;SDS011;22603;47.900;8.146;2024-03-22T09:14:46;5.25;;;1.75;;
36593;SDS011;22603;47.900;8.146;2024-03-22T09:17:32;2.55;;;1.52;;
36593;SDS011;22603;47.900;8.146;2024-03-22T09:20:18;4.15;;;1.60;;
36593;SDS011;22603;47.900;8.146;2024-03-22T09:23:04;4.43;;;1.58;;
36593;SDS011;22603;47.900;8.146;2024-03-22T09:25:49;3.55;;;1.70;;
36593;SDS011;22603;47.900;8.146;2024-03-22T09:28:35;4.50;;;1.63;;
36593;SDS011;22603;47.900;8.146;2024-03-22T09:31:20;7.72;;;2.00;;
36593;SDS011;22603;47.900;8.146;2024-03-22T09:34:06;3.95;;;1.98;;
36593;SDS011;22603;47.900;8.146;2024-03-22T09:36:52;5.00;;;2.05;;
36593;SDS011;22603;47.900;8.146;2024-03-22T09:39:38;11.35;;;2.08;;
36593;SDS011;22603;47.900;8.146;2024-03-22T09:42:22;5.18;;;2.17;;
36593;SDS011;22603;47.900;8.146;2024-03-22T09:45:11;6.03;;;2.00;;
36593;SDS011;22603;47.900;8.146;2024-03-22T09:47:56;6.05;;;2.00;;
36593;SDS011;22603;47.900;8.146;2024-03-22T09:50:43;4.88;;;1.80;;
36593;SDS011;22603;47.900;8.146;2024-03-22T09:53:32;4.93;;;1.95;;
36593;SDS011;22603;47.900;8.146;2024-03-22T09:56:18;6.25;;;2.45;;
36593;SDS011;22603;47.900;8.146;2024-03-22T09:59:06;5.70;;;2.17;;
36593;SDS011;22603;47.900;8.146;2024-03-22T10:01:51;6.28;;;2.10;;
36593;SDS011;22603;47.900;8.146;2024-03-22T10:04:38;5.68;;;2.30;;
36593;SDS011;22603;47.900;8.146;2024-03-22T10:07:23;6.32;;;2.35;;
36593;SDS011;22603;47.900;8.146;2024-03-22T10:10:11;5.28;;;2.33;;
36593;SDS011;22603;47.900;8.146;2024-03-22T10:12:59;6.40;;;2.20;;
36593;SDS011;22603;47.900;8.146;2024-03-22T10:15:45;7.82;;;2.30;;
36593;SDS011;22603;47.900;8.146;2024-03-22T10:18:32;8.65;;;2.55;;
36593;SDS011;22603;47.900;8.146;2024-03-22T10:21:18;5.32;;;1.75;;
36593;SDS011;22603;47.900;8.146;2024-03-22T10:24:04;4.70;;;1.75;;
36593;SDS011;22603;47.900;8.146;2024-03-22T10:26:51;5.75;;;2.05;;
36593;SDS011;22603;47.900;8.146;2024-03-22T10:29:37;5.35;;;1.70;;
36593;SDS011;22603;47.900;8.146;2024-03-22T10:32:22;4.95;;;2.00;;
36593;SDS011;22603;47.900;8.146;2024-03-22T10:35:08;5.38;;;1.60;;
36593;SDS011;22603;47.900;8.146;2024-03-22T10:37:57;3.72;;;1.70;;
36593;SDS011;22603;47.900;8.146;2024-03-22T10:40:43;5.63;;;2.22;;
36593;SDS011;22603;47.900;8.146;2024-03-22T10:43:31;6.35;;;1.80;;
36593;SDS011;22603;47.900;8.146;2024-03-22T10:46:16;5.13;;;1.58;;
36593;SDS011;22603;47.900;8.146;2024-03-22T10:49:06;5.03;;;1.50;;
36593;SDS011;22603;47.900;8.146;2024-03-22T10:51:51;2.35;;;1.45;;
36593;SDS011;22603;47.900;8.146;2024-03-22T10:54:43;3.38;;;1.42;;
36593;SDS011;22603;47.900;8.146;2024-03-22T10:57:30;3.45;;;1.00;;
36593;SDS011;22603;47.900;8.146;2024-03-22T11:00:28;2.70;;;1.05;;
36593;SDS011;22603;47.900;8.146;2024-03-22T11:03:13;2.05;;;1.20;;
36593;SDS011;22603;47.900;8.146;2024-03-22T11:05:59;2.97;;;1.23;;
36593;SDS011;22603;47.900;8.146;2024-03-22T11:08:49;4.05;;;1.13;;
36593;SDS011;22603;47.900;8.146;2024-03-22T11:11:35;2.20;;;1.05;;
36593;SDS011;22603;47.900;8.146;2024-03-22T11:14:21;5.50;;;1.27;;
36593;SDS011;22603;47.900;8.146;2024-03-22T11:17:10;3.55;;;1.10;;
36593;SDS011;22603;47.900;8.146;2024-03-22T11:19:55;2.25;;;1.10;;
36593;SDS011;22603;47.900;8.146;2024-03-22T11:22:40;2.35;;;1.00;;
36593;SDS011;22603;47.900;8.146;2024-03-22T11:25:25;1.05;;;0.80;;
36593;SDS011;22603;47.900;8.146;2024-03-22T11:28:11;4.50;;;1.20;;
36593;SDS011;22603;47.900;8.146;2024-03-22T11:30:56;4.35;;;1.00;;
36593;SDS011;22603;47.900;8.146;2024-03-22T11:33:45;3.65;;;1.10;;
36593;SDS011;22603;47.900;8.146;2024-03-22T11:36:30;3.05;;;1.23;;
36593;SDS011;22603;47.900;8.146;2024-03-22T11:39:16;5.22;;;1.10;;
36593;SDS011;22603;47.900;8.146;2024-03-22T11:42:03;2.80;;;1.00;;
36593;SDS011;22603;47.900;8.146;2024-03-22T11:44:50;1.90;;;1.05;;
36593;SDS011;22603;47.900;8.146;2024-03-22T11:47:35;1.17;;;0.90;;
36593;SDS011;22603;47.900;8.146;2024-03-22T11:50:22;1.73;;;0.93;;
36593;SDS011;22603;47.900;8.146;2024-03-22T11:53:07;2.38;;;1.30;;
36593;SDS011;22603;47.900;8.146;2024-03-22T11:55:53;2.60;;;1.20;;
36593;SDS011;22603;47.900;8.146;2024-03-22T11:58:38;3.08;;;1.38;;
36593;SDS011;22603;47.900;8.146;2024-03-22T12:01:24;3.28;;;1.42;;
36593;SDS011;22603;47.900;8.146;2024-03-22T12:04:09;3.03;;;1.20;;
36593;SDS011;22603;47.900;8.146;2024-03-22T12:07:00;5.38;;;1.50;;
36593;SDS011;22603;47.900;8.146;2024-03-22T12:09:45;3.25;;;1.08;;
36593;SDS011;22603;47.900;8.146;2024-03-22T12:12:31;2.83;;;1.10;;
36593;SDS011;22603;47.900;8.146;2024-03-22T12:15:16;1.90;;;1.20;;
36593;SDS011;22603;47.900;8.146;2024-03-22T12:18:02;2.53;;;1.25;;
36593;SDS011;22603;47.900;8.146;2024-03-22T12:20:47;4.53;;;1.45;;
36593;SDS011;22603;47.900;8.146;2024-03-22T12:23:35;1.67;;;1.15;;
36593;SDS011;22603;47.900;8.146;2024-03-22T12:26:20;2.35;;;1.20;;
36593;SDS011;22603;47.900;8.146;2024-03-22T12:29:06;2.50;;;1.20;;
36593;SDS011;22603;47.900;8.146;2024-03-22T12:31:51;3.33;;;1.52;;
36593;SDS011;22603;47.900;8.146;2024-03-22T12:34:37;5.10;;;1.58;;
36593;SDS011;22603;47.900;8.146;2024-03-22T12:37:23;2.55;;;1.20;;
36593;SDS011;22603;47.900;8.146;2024-03-22T12:40:10;3.05;;;1.50;;
36593;SDS011;22603;47.900;8.146;2024-03-22T12:42:58;2.58;;;1.50;;
36593;SDS011;22603;47.900;8.146;2024-03-22T12:45:42;5.30;;;1.90;;
36593;SDS011;22603;47.900;8.146;2024-03-22T12:48:28;3.85;;;1.40;;
36593;SDS011;22603;47.900;8.146;2024-03-22T12:51:13;4.50;;;1.50;;
36593;SDS011;22603;47.900;8.146;2024-03-22T12:53:59;3.35;;;1.58;;
36593;SDS011;22603;47.900;8.146;2024-03-22T12:56:45;4.90;;;1.60;;
36593;SDS011;22603;47.900;8.146;2024-03-22T12:59:31;4.63;;;1.92;;
36593;SDS011;22603;47.900;8.146;2024-03-22T13:02:17;5.63;;;1.85;;
36593;SDS011;22603;47.900;8.146;2024-03-22T13:05:02;6.07;;;1.80;;
36593;SDS011;22603;47.900;8.146;2024-03-22T13:07:47;4.32;;;1.40;;
36593;SDS011;22603;47.900;8.146;2024-03-22T13:10:33;4.15;;;1.40;;
36593;SDS011;22603;47.900;8.146;2024-03-22T13:13:19;2.63;;;1.30;;
36593;SDS011;22603;47.900;8.146;2024-03-22T13:16:05;6.78;;;1.30;;
36593;SDS011;22603;47.900;8.146;2024-03-22T13:18:51;3.22;;;1.20;;
36593;SDS011;22603;47.900;8.146;2024-03-22T13:21:37;3.03;;;1.33;;
36593;SDS011;22603;47.900;8.146;2024-03-22T13:24:21;2.45;;;1.00;;
36593;SDS011;22603;47.900;8.146;2024-03-22T13:27:08;2.95;;;1.33;;
36593;SDS011;22603;47.900;8.146;2024-03-22T13:29:55;2.03;;;1.00;;
36593;SDS011;22603;47.900;8.146;2024-03-22T13:32:41;1.42;;;0.93;;
36593;SDS011;22603;47.900;8.146;2024-03-22T13:35:26;2.72;;;1.00;;
36593;SDS011;22603;47.900;8.146;2024-03-22T13:38:11;2.80;;;1.20;;
36593;SDS011;22603;47.900;8.146;2024-03-22T13:40:58;1.23;;;0.90;;
36593;SDS011;22603;47.900;8.146;2024-03-22T13:43:44;2.38;;;1.10;;
36593;SDS011;22603;47.900;8.146;2024-03-22T13:46:30;2.67;;;1.20;;
36593;SDS011;22603;47.900;8.146;2024-03-22T13:49:17;2.25;;;1.08;;
36593;SDS011;22603;47.900;8.146;2024-03-22T13:52:04;2.50;;;1.10;;
36593;SDS011;22603;47.900;8.146;2024-03-22T13:54:50;2.53;;;1.20;;
36593;SDS011;22603;47.900;8.146;2024-03-22T13:57:35;2.90;;;1.20;;
36593;SDS011;22603;47.900;8.146;2024-03-22T14:00:21;1.35;;;0.85;;
36593;SDS011;22603;47.900;8.146;2024-03-22T14:03:09;5.20;;;1.17;;
36593;SDS011;22603;47.900;8.146;2024-03-22T14:05:55;1.88;;;0.93;;
36593;SDS011;22603;47.900;8.146;2024-03-22T14:08:40;2.17;;;1.00;;
36593;SDS011;22603;47.900;8.146;2024-03-22T14:11:28;1.92;;;0.90;;
36593;SDS011;22603;47.900;8.146;2024-03-22T14:14:14;4.18;;;1.20;;
36593;SDS011;22603;47.900;8.146;2024-03-22T14:17:00;3.20;;;1.10;;
36593;SDS011;22603;47.900;8.146;2024-03-22T14:19:46;3.33;;;1.08;;
36593;SDS011;22603;47.900;8.146;2024-03-22T14:22:32;1.88;;;0.88;;
36593;SDS011;22603;47.900;8.146;2024-03-22T14:25:17;4.65;;;1.30;;
36593;SDS011;22603;47.900;8.146;2024-03-22T14:28:03;3.22;;;1.17;;
36593;SDS011;22603;47.900;8.146;2024-03-22T14:30:48;1.35;;;0.95;;
36593;SDS011;22603;47.900;8.146;2024-03-22T14:33:34;1.60;;;1.00;;
36593;SDS011;22603;47.900;8.146;2024-03-22T14:36:21;1.92;;;1.00;;
36593;SDS011;22603;47.900;8.146;2024-03-22T14:39:07;2.42;;;1.05;;
36593;SDS011;22603;47.900;8.146;2024-03-22T14:41:52;2.92;;;1.00;;
36593;SDS011;22603;47.900;8.146;2024-03-22T14:44:39;3.70;;;1.02;;
36593;SDS011;22603;47.900;8.146;2024-03-22T14:47:24;2.15;;;1.10;;
36593;SDS011;22603;47.900;8.146;2024-03-22T14:50:10;2.33;;;1.00;;
36593;SDS011;22603;47.900;8.146;2024-03-22T14:52:57;3.25;;;1.20;;
36593;SDS011;22603;47.900;8.146;2024-03-22T14:55:51;1.42;;;0.80;;
36593;SDS011;22603;47.900;8.146;2024-03-22T14:58:36;1.73;;;0.80;;
36593;SDS011;22603;47.900;8.146;2024-03-22T15:01:22;1.58;;;0.85;;
36593;SDS011;22603;47.900;8.146;2024-03-22T15:04:07;1.95;;;0.80;;
36593;SDS011;22603;47.900;8.146;2024-03-22T15:06:53;1.70;;;0.98;;
36593;SDS011;22603;47.900;8.146;2024-03-22T15:09:39;1.77;;;1.08;;
36593;SDS011;22603;47.900;8.146;2024-03-22T15:12:25;1.17;;;0.90;;
36593;SDS011;22603;47.900;8.146;2024-03-22T15:15:11;3.33;;;1.10;;
36593;SDS011;22603;47.900;8.146;2024-03-22T15:17:56;1.92;;;1.00;;
36593;SDS011;22603;47.900;8.146;2024-03-22T15:20:42;2.00;;;0.88;;
36593;SDS011;22603;47.900;8.146;2024-03-22T15:23:28;2.72;;;0.90;;
36593;SDS011;22603;47.900;8.146;2024-03-22T15:26:15;2.28;;;0.82;;
36593;SDS011;22603;47.900;8.146;2024-03-22T15:29:00;1.75;;;0.93;;
36593;SDS011;22603;47.900;8.146;2024-03-22T15:31:46;0.88;;;0.75;;
36593;SDS011;22603;47.900;8.146;2024-03-22T15:34:31;1.98;;;1.02;;
36593;SDS011;22603;47.900;8.146;2024-03-22T15:37:16;1.83;;;0.90;;
36593;SDS011;22603;47.900;8.146;2024-03-22T15:40:01;1.58;;;0.95;;
36593;SDS011;22603;47.900;8.146;2024-03-22T15:42:49;3.47;;;1.00;;
36593;SDS011;22603;47.900;8.146;2024-03-22T15:45:34;0.93;;;0.80;;
36593;SDS011;22603;47.900;8.146;2024-03-22T15:48:20;1.75;;;0.95;;
36593;SDS011;22603;47.900;8.146;2024-03-22T15:51:07;4.10;;;1.10;;
36593;SDS011;22603;47.900;8.146;2024-03-22T15:53:53;1.83;;;0.90;;
36593;SDS011;22603;47.900;8.146;2024-03-22T15:56:37;4.22;;;1.02;;
36593;SDS011;22603;47.900;8.146;2024-03-22T15:59:24;2.13;;;1.15;;
36593;SDS011;22603;47.900;8.146;2024-03-22T16:02:09;1.48;;;0.80;;
36593;SDS011;22603;47.900;8.146;2024-03-22T16:04:55;2.67;;;1.25;;
36593;SDS011;22603;47.900;8.146;2024-03-22T16:07:40;2.78;;;1.02;;
36593;SDS011;22603;47.900;8.146;2024-03-22T16:10:27;1.67;;;0.98;;
36593;SDS011;22603;47.900;8.146;2024-03-22T16:13:12;0.90;;;0.70;;
36593;SDS011;22603;47.900;8.146;2024-03-22T16:16:00;2.35;;;0.98;;
36593;SDS011;22603;47.900;8.146;2024-03-22T16:18:44;1.88;;;0.85;;
36593;SDS011;22603;47.900;8.146;2024-03-22T16:21:30;2.03;;;1.13;;
36593;SDS011;22603;47.900;8.146;2024-03-22T16:24:15;2.28;;;0.90;;
36593;SDS011;22603;47.900;8.146;2024-03-22T16:27:03;0.98;;;0.80;;
36593;SDS011;22603;47.900;8.146;2024-03-22T16:29:48;0.93;;;0.70;;
36593;SDS011;22603;47.900;8.146;2024-03-22T16:32:36;2.15;;;0.70;;
36593;SDS011;22603;47.900;8.146;2024-03-22T16:35:21;4.57;;;1.02;;
36593;SDS011;22603;47.900;8.146;2024-03-22T16:38:06;1.70;;;0.80;;